sensor_id;sensor_type;location;lat;lon;timestamp;P1;durP1;ratioP1;P2;durP2;ratioP2
22675;SDS011;12521;43.310;21.876;2022-07-03T02:28:54;9.0;;;8.0;;
22675;SDS011;12521;43.310;21.876;2022-07-03T02:33:46;9.0;;;8.0;;
22675;SDS011;12521;43.310;21.876;2022-07-03T02:38:25;9.0;;;8.0;;
22675;SDS011;12521;43.310;21.876;2022-07-03T02:43:36;9.0;;;8.0;;
22675;SDS011;12521;43.310;21.876;2022-07-03T02:48:37;9.0;;;8.0;;
22675;SDS011;12521;43.310;21.876;2022-07-03T02:53:41;9.0;;;8.0;;
22675;SDS011;12521;43.310;21.876;2022-07-03T07:09:44;18.0;;;17.0;;
22675;SDS011;12521;43.310;21.876;2022-07-03T07:14:20;18.0;;;17.0;;
22675;SDS011;12521;43.310;21.876;2022-07-03T07:18:57;18.0;;;17.0;;
22675;SDS011;12521;43.310;21.876;2022-07-03T07:23:33;18.0;;;17.0;;
22675;SDS011;12521;43.310;21.876;2022-07-03T07:28:11;16.0;;;13.0;;
22675;SDS011;12521;43.310;21.876;2022-07-03T07:32:47;16.0;;;13.0;;
22675;SDS011;12521;43.310;21.876;2022-07-03T07:37:24;13.0;;;9.0;;
22675;SDS011;12521;43.310;21.876;2022-07-03T07:42:00;13.0;;;9.0;;
22675;SDS011;12521;43.310;21.876;2022-07-03T07:46:37;13.0;;;9.0;;
22675;SDS011;12521;43.310;21.876;2022-07-03T07:51:13;13.0;;;9.0;;
22675;SDS011;12521;43.310;21.876;2022-07-03T07:55:50;13.0;;;9.0;;
22675;SDS011;12521;43.310;21.876;2022-07-03T08:09:40;10.0;;;9.0;;
22675;SDS011;12521;43.310;21.876;2022-07-03T08:14:16;10.0;;;9.0;;
22675;SDS011;12521;43.310;21.876;2022-07-03T08:18:53;10.0;;;9.0;;
22675;SDS011;12521;43.310;21.876;2022-07-03T08:23:29;10.0;;;9.0;;
22675;SDS011;12521;43.310;21.876;2022-07-03T08:28:06;12.0;;;10.0;;
22675;SDS011;12521;43.310;21.876;2022-07-03T08:32:42;12.0;;;10.0;;
22675;SDS011;12521;43.310;21.876;2022-07-03T08:37:18;15.0;;;11.0;;
22675;SDS011;12521;43.310;21.876;2022-07-03T08:41:58;15.0;;;11.0;;
22675;SDS011;12521;43.310;21.876;2022-07-03T08:46:39;15.0;;;11.0;;
22675;SDS011;12521;43.310;21.876;2022-07-03T08:51:20;14.0;;;10.0;;
22675;SDS011;12521;43.310;21.876;2022-07-03T08:55:57;14.0;;;10.0;;
22675;SDS011;12521;43.310;21.876;2022-07-03T09:00:41;12.0;;;9.0;;
22675;SDS011;12521;43.310;21.876;2022-07-03T09:05:18;12.0;;;9.0;;
22675;SDS011;12521;43.310;21.876;2022-07-03T09:09:55;12.0;;;9.0;;
22675;SDS011;12521;43.310;21.876;2022-07-03T09:14:33;12.0;;;9.0;;
22675;SDS011;12521;43.310;21.876;2022-07-03T09:47:25;12.0;;;12.0;;
22675;SDS011;12521;43.310;21.876;2022-07-03T09:52:01;12.0;;;12.0;;
22675;SDS011;12521;43.310;21.876;2022-07-03T09:56:39;12.0;;;12.0;;
22675;SDS011;12521;43.310;21.876;2022-07-03T10:01:18;12.0;;;12.0;;
22675;SDS011;12521;43.310;21.876;2022-07-03T10:06:04;12.0;;;12.0;;
22675;SDS011;12521;43.310;21.876;2022-07-03T10:10:46;12.0;;;12.0;;
22675;SDS011;12521;43.310;21.876;2022-07-03T10:15:31;12.0;;;12.0;;
22675;SDS011;12521;43.310;21.876;2022-07-03T10:20:23;13.0;;;12.0;;
22675;SDS011;12521;43.310;21.876;2022-07-03T10:25:08;13.0;;;12.0;;
22675;SDS011;12521;43.310;21.876;2022-07-03T10:29:49;13.0;;;12.0;;
22675;SDS011;12521;43.310;21.876;2022-07-03T10:34:32;13.0;;;12.0;;
22675;SDS011;12521;43.310;21.876;2022-07-03T11:07:31;16.0;;;12.0;;
22675;SDS011;12521;43.310;21.876;2022-07-03T11:12:09;16.0;;;12.0;;
22675;SDS011;12521;43.310;21.876;2022-07-03T11:16:46;16.0;;;12.0;;
22675;SDS011;12521;43.310;21.876;2022-07-03T11:21:42;16.0;;;12.0;;
22675;SDS011;12521;43.310;21.876;2022-07-03T11:26:35;16.0;;;12.0;;
22675;SDS011;12521;43.310;21.876;2022-07-03T11:31:19;16.0;;;12.0;;
22675;SDS011;12521;43.310;21.876;2022-07-03T11:35:59;16.0;;;12.0;;
22675;SDS011;12521;43.310;21.876;2022-07-03T12:27:22;13.0;;;10.0;;
22675;SDS011;12521;43.310;21.876;2022-07-03T12:32:00;13.0;;;10.0;;
22675;SDS011;12521;43.310;21.876;2022-07-03T12:36:58;13.0;;;10.0;;
22675;SDS011;12521;43.310;21.876;2022-07-03T12:41:35;13.0;;;10.0;;
22675;SDS011;12521;43.310;21.876;2022-07-03T12:46:23;13.0;;;10.0;;
22675;SDS011;12521;43.310;21.876;2022-07-03T12:51:07;12.0;;;10.0;;
22675;SDS011;12521;43.310;21.876;2022-07-03T12:55:45;12.0;;;10.0;;
22675;SDS011;12521;43.310;21.876;2022-07-03T13:00:21;12.0;;;11.0;;
22675;SDS011;12521;43.310;21.876;2022-07-03T13:04:59;12.0;;;11.0;;
22675;SDS011;12521;43.310;21.876;2022-07-03T13:09:53;12.0;;;12.0;;
22675;SDS011;12521;43.310;21.876;2022-07-03T13:14:30;12.0;;;12.0;;
22675;SDS011;12521;43.310;21.876;2022-07-03T13:19:10;12.0;;;12.0;;
22675;SDS011;12521;43.310;21.876;2022-07-03T13:23:51;12.0;;;12.0;;
22675;SDS011;12521;43.310;21.876;2022-07-03T13:28:27;12.0;;;12.0;;
22675;SDS011;12521;43.310;21.876;2022-07-03T13:33:05;12.0;;;12.0;;
22675;SDS011;12521;43.310;21.876;2022-07-03T15:49:24;12.0;;;11.0;;
22675;SDS011;12521;43.310;21.876;2022-07-03T15:54:17;12.0;;;11.0;;
22675;SDS011;12521;43.310;21.876;2022-07-03T15:59:16;12.0;;;11.0;;
22675;SDS011;12521;43.310;21.876;2022-07-03T16:04:10;12.0;;;11.0;;
22675;SDS011;12521;43.310;21.876;2022-07-03T16:08:53;12.0;;;11.0;;
22675;SDS011;12521;43.310;21.876;2022-07-03T16:13:31;12.0;;;11.0;;
22675;SDS011;12521;43.310;21.876;2022-07-03T16:18:12;12.0;;;11.0;;
22675;SDS011;12521;43.310;21.876;2022-07-03T16:22:50;12.0;;;11.0;;
22675;SDS011;12521;43.310;21.876;2022-07-03T16:27:32;12.0;;;11.0;;
22675;SDS011;12521;43.310;21.876;2022-07-03T16:32:18;12.0;;;11.0;;
22675;SDS011;12521;43.310;21.876;2022-07-03T16:37:23;12.0;;;11.0;;
22675;SDS011;12521;43.310;21.876;2022-07-03T17:30:05;11.0;;;10.0;;
22675;SDS011;12521;43.310;21.876;2022-07-03T17:34:51;11.0;;;10.0;;
22675;SDS011;12521;43.310;21.876;2022-07-03T17:39:33;11.0;;;10.0;;
22675;SDS011;12521;43.310;21.876;2022-07-03T17:44:12;11.0;;;10.0;;
22675;SDS011;12521;43.310;21.876;2022-07-03T17:48:56;12.0;;;10.0;;
22675;SDS011;12521;43.310;21.876;2022-07-03T17:53:36;12.0;;;10.0;;
22675;SDS011;12521;43.310;21.876;2022-07-03T17:58:19;12.0;;;11.0;;
22675;SDS011;12521;43.310;21.876;2022-07-03T18:02:56;12.0;;;11.0;;
22675;SDS011;12521;43.310;21.876;2022-07-03T18:07:56;12.0;;;11.0;;
22675;SDS011;12521;43.310;21.876;2022-07-03T18:13:08;12.0;;;11.0;;
22675;SDS011;12521;43.310;21.876;2022-07-03T18:51:25;13.0;;;12.0;;
22675;SDS011;12521;43.310;21.876;2022-07-03T18:56:34;13.0;;;12.0;;
22675;SDS011;12521;43.310;21.876;2022-07-03T19:01:17;13.0;;;12.0;;
22675;SDS011;12521;43.310;21.876;2022-07-03T19:06:03;13.0;;;12.0;;
22675;SDS011;12521;43.310;21.876;2022-07-03T19:11:01;13.0;;;12.0;;
22675;SDS011;12521;43.310;21.876;2022-07-03T19:15:45;13.0;;;12.0;;
22675;SDS011;12521;43.310;21.876;2022-07-03T19:20:27;13.0;;;12.0;;
22675;SDS011;12521;43.310;21.876;2022-07-03T19:25:07;13.0;;;12.0;;
22675;SDS011;12521;43.310;21.876;2022-07-03T19:29:45;13.0;;;12.0;;
22675;SDS011;12521;43.310;21.876;2022-07-03T19:34:22;13.0;;;12.0;;
22675;SDS011;12521;43.310;21.876;2022-07-03T20:11:18;19.0;;;13.0;;
22675;SDS011;12521;43.310;21.876;2022-07-03T20:15:54;19.0;;;13.0;;
22675;SDS011;12521;43.310;21.876;2022-07-03T20:20:31;19.0;;;13.0;;
22675;SDS011;12521;43.310;21.876;2022-07-03T20:25:09;19.0;;;13.0;;
22675;SDS011;12521;43.310;21.876;2022-07-03T20:29:47;19.0;;;13.0;;
22675;SDS011;12521;43.310;21.876;2022-07-03T20:34:23;19.0;;;13.0;;
22675;SDS011;12521;43.310;21.876;2022-07-03T20:48:13;15.0;;;14.0;;
22675;SDS011;12521;43.310;21.876;2022-07-03T20:52:53;15.0;;;14.0;;
22675;SDS011;12521;43.310;21.876;2022-07-03T20:57:30;15.0;;;14.0;;
22675;SDS011;12521;43.310;21.876;2022-07-03T21:02:07;15.0;;;14.0;;
22675;SDS011;12521;43.310;21.876;2022-07-03T21:06:43;15.0;;;14.0;;
22675;SDS011;12521;43.310;21.876;2022-07-03T21:11:22;15.0;;;14.0;;
22675;SDS011;12521;43.310;21.876;2022-07-03T21:16:00;15.0;;;14.0;;
22675;SDS011;12521;43.310;21.876;2022-07-03T21:48:12;16.0;;;12.0;;
22675;SDS011;12521;43.310;21.876;2022-07-03T21:52:49;16.0;;;12.0;;
22675;SDS011;12521;43.310;21.876;2022-07-03T21:57:25;16.0;;;12.0;;
22675;SDS011;12521;43.310;21.876;2022-07-03T22:02:01;16.0;;;12.0;;
22675;SDS011;12521;43.310;21.876;2022-07-03T22:06:37;16.0;;;12.0;;
22675;SDS011;12521;43.310;21.876;2022-07-03T22:11:14;16.0;;;12.0;;
22675;SDS011;12521;43.310;21.876;2022-07-03T22:15:50;16.0;;;12.0;;
22675;SDS011;12521;43.310;21.876;2022-07-03T22:29:44;12.0;;;10.0;;
22675;SDS011;12521;43.310;21.876;2022-07-03T22:34:22;12.0;;;10.0;;
22675;SDS011;12521;43.310;21.876;2022-07-03T22:38:58;12.0;;;10.0;;
22675;SDS011;12521;43.310;21.876;2022-07-03T22:43:34;12.0;;;10.0;;
22675;SDS011;12521;43.310;21.876;2022-07-03T22:48:11;12.0;;;10.0;;
22675;SDS011;12521;43.310;21.876;2022-07-03T22:52:47;12.0;;;10.0;;
22675;SDS011;12521;43.310;21.876;2022-07-03T22:57:24;12.0;;;10.0;;
22675;SDS011;12521;43.310;21.876;2022-07-03T23:02:00;11.0;;;11.0;;
22675;SDS011;12521;43.310;21.876;2022-07-03T23:06:37;11.0;;;11.0;;
22675;SDS011;12521;43.310;21.876;2022-07-03T23:11:14;11.0;;;11.0;;
22675;SDS011;12521;43.310;21.876;2022-07-03T23:15:50;11.0;;;11.0;;
22675;SDS011;12521;43.310;21.876;2022-07-03T23:48:05;13.0;;;12.0;;
22675;SDS011;12521;43.310;21.876;2022-07-03T23:52:42;13.0;;;12.0;;
22675;SDS011;12521;43.310;21.876;2022-07-03T23:57:18;13.0;;;12.0;;
